sensor_id;sensor_type;location;lat;lon;timestamp;temperature;humidity
59162;DHT22;44942;48.936;8.260;2023-12-22T00:01:07;22.30;53.90
59162;DHT22;44942;48.936;8.260;2023-12-22T00:06:07;22.30;53.80
59162;DHT22;44942;48.936;8.260;2023-12-22T00:11:08;22.40;53.70
59162;DHT22;44942;48.936;8.260;2023-12-22T00:16:08;22.40;53.60
59162;DHT22;44942;48.936;8.260;2023-12-22T00:21:10;22.40;53.60
59162;DHT22;44942;48.936;8.260;2023-12-22T00:26:11;22.40;53.50
59162;DHT22;44942;48.936;8.260;2023-12-22T00:31:12;22.40;53.40
59162;DHT22;44942;48.936;8.260;2023-12-22T00:36:12;22.50;53.30
59162;DHT22;44942;48.936;8.260;2023-12-22T00:41:13;22.50;53.30
59162;DHT22;44942;48.936;8.260;2023-12-22T00:46:14;22.50;53.20
59162;DHT22;44942;48.936;8.260;2023-12-22T00:51:14;22.50;53.20
59162;DHT22;44942;48.936;8.260;2023-12-22T00:56:16;22.50;53.10
59162;DHT22;44942;48.936;8.260;2023-12-22T01:01:17;22.50;53.20
59162;DHT22;44942;48.936;8.260;2023-12-22T01:06:18;22.50;53.10
59162;DHT22;44942;48.936;8.260;2023-12-22T01:11:18;22.50;53.10
59162;DHT22;44942;48.936;8.260;2023-12-22T01:16:19;22.50;53.10
59162;DHT22;44942;48.936;8.260;2023-12-22T01:21:21;22.50;53.00
59162;DHT22;44942;48.936;8.260;2023-12-22T01:26:22;22.50;53.00
59162;DHT22;44942;48.936;8.260;2023-12-22T01:31:23;22.50;52.90
59162;DHT22;44942;48.936;8.260;2023-12-22T01:36:23;22.50;52.90
59162;DHT22;44942;48.936;8.260;2023-12-22T01:41:24;22.50;53.00
59162;DHT22;44942;48.936;8.260;2023-12-22T01:46:24;22.50;52.90
59162;DHT22;44942;48.936;8.260;2023-12-22T01:51:25;22.50;52.90
59162;DHT22;44942;48.936;8.260;2023-12-22T01:56:26;22.50;52.80
59162;DHT22;44942;48.936;8.260;2023-12-22T02:01:27;22.40;52.80
59162;DHT22;44942;48.936;8.260;2023-12-22T02:06:30;22.50;52.80
59162;DHT22;44942;48.936;8.260;2023-12-22T02:11:31;22.40;52.80
59162;DHT22;44942;48.936;8.260;2023-12-22T02:16:52;22.40;52.90
59162;DHT22;44942;48.936;8.260;2023-12-22T02:22:04;22.40;52.80
59162;DHT22;44942;48.936;8.260;2023-12-22T02:32:42;22.40;52.80
59162;DHT22;44942;48.936;8.260;2023-12-22T02:37:47;22.40;52.80
59162;DHT22;44942;48.936;8.260;2023-12-22T02:42:49;22.40;52.80
59162;DHT22;44942;48.936;8.260;2023-12-22T02:47:50;22.40;52.80
59162;DHT22;44942;48.936;8.260;2023-12-22T02:52:50;22.40;52.80
59162;DHT22;44942;48.936;8.260;2023-12-22T02:57:51;22.40;52.90
59162;DHT22;44942;48.936;8.260;2023-12-22T03:02:52;22.30;52.70
59162;DHT22;44942;48.936;8.260;2023-12-22T03:07:52;22.40;52.80
59162;DHT22;44942;48.936;8.260;2023-12-22T03:12:53;22.40;52.80
59162;DHT22;44942;48.936;8.260;2023-12-22T03:17:53;22.30;52.80
59162;DHT22;44942;48.936;8.260;2023-12-22T03:22:54;22.30;52.80
59162;DHT22;44942;48.936;8.260;2023-12-22T03:27:54;22.30;52.80
59162;DHT22;44942;48.936;8.260;2023-12-22T03:32:55;22.30;52.80
59162;DHT22;44942;48.936;8.260;2023-12-22T03:37:55;22.30;52.80
59162;DHT22;44942;48.936;8.260;2023-12-22T03:42:56;22.20;52.80
59162;DHT22;44942;48.936;8.260;2023-12-22T03:47:56;22.20;52.90
59162;DHT22;44942;48.936;8.260;2023-12-22T03:52:57;22.20;52.90
59162;DHT22;44942;48.936;8.260;2023-12-22T03:57:58;22.20;52.80
59162;DHT22;44942;48.936;8.260;2023-12-22T04:02:58;22.20;52.80
59162;DHT22;44942;48.936;8.260;2023-12-22T04:07:59;22.20;52.80
59162;DHT22;44942;48.936;8.260;2023-12-22T04:12:59;22.20;52.80
59162;DHT22;44942;48.936;8.260;2023-12-22T04:18:00;22.20;52.80
59162;DHT22;44942;48.936;8.260;2023-12-22T04:23:01;22.20;52.80
59162;DHT22;44942;48.936;8.260;2023-12-22T04:28:03;22.20;52.80
59162;DHT22;44942;48.936;8.260;2023-12-22T04:33:03;22.20;52.80
59162;DHT22;44942;48.936;8.260;2023-12-22T04:38:04;22.20;52.80
59162;DHT22;44942;48.936;8.260;2023-12-22T04:43:05;22.10;52.80
59162;DHT22;44942;48.936;8.260;2023-12-22T04:48:06;22.20;52.90
59162;DHT22;44942;48.936;8.260;2023-12-22T04:53:06;22.10;52.90
59162;DHT22;44942;48.936;8.260;2023-12-22T04:58:07;22.10;52.90
59162;DHT22;44942;48.936;8.260;2023-12-22T05:03:08;22.10;52.90
59162;DHT22;44942;48.936;8.260;2023-12-22T05:08:08;22.10;52.90
59162;DHT22;44942;48.936;8.260;2023-12-22T05:13:09;22.10;52.90
59162;DHT22;44942;48.936;8.260;2023-12-22T05:18:09;22.10;52.90
59162;DHT22;44942;48.936;8.260;2023-12-22T05:23:10;22.10;53.70
59162;DHT22;44942;48.936;8.260;2023-12-22T05:28:11;22.10;53.00
59162;DHT22;44942;48.936;8.260;2023-12-22T05:33:11;22.10;53.00
59162;DHT22;44942;48.936;8.260;2023-12-22T05:38:12;22.10;53.00
59162;DHT22;44942;48.936;8.260;2023-12-22T05:43:12;22.10;53.00
59162;DHT22;44942;48.936;8.260;2023-12-22T05:48:13;22.00;53.00
59162;DHT22;44942;48.936;8.260;2023-12-22T05:53:14;22.10;53.00
59162;DHT22;44942;48.936;8.260;2023-12-22T05:58:15;22.00;53.00
59162;DHT22;44942;48.936;8.260;2023-12-22T06:03:16;21.90;52.70
59162;DHT22;44942;48.936;8.260;2023-12-22T06:08:16;21.70;51.30
59162;DHT22;44942;48.936;8.260;2023-12-22T06:13:17;21.40;50.10
59162;DHT22;44942;48.936;8.260;2023-12-22T06:18:17;21.40;49.80
59162;DHT22;44942;48.936;8.260;2023-12-22T06:23:18;21.40;49.70
59162;DHT22;44942;48.936;8.260;2023-12-22T06:28:19;21.40;49.60
59162;DHT22;44942;48.936;8.260;2023-12-22T06:33:19;21.50;49.70
59162;DHT22;44942;48.936;8.260;2023-12-22T06:38:20;21.50;49.70
59162;DHT22;44942;48.936;8.260;2023-12-22T06:43:20;21.40;49.70
59162;DHT22;44942;48.936;8.260;2023-12-22T06:48:21;21.50;49.80
59162;DHT22;44942;48.936;8.260;2023-12-22T06:53:22;21.40;49.70
59162;DHT22;44942;48.936;8.260;2023-12-22T06:58:22;21.40;49.80
59162;DHT22;44942;48.936;8.260;2023-12-22T07:03:26;21.30;49.70
59162;DHT22;44942;48.936;8.260;2023-12-22T07:08:26;21.30;49.70
59162;DHT22;44942;48.936;8.260;2023-12-22T07:13:27;21.30;49.80
59162;DHT22;44942;48.936;8.260;2023-12-22T07:18:28;21.30;49.70
59162;DHT22;44942;48.936;8.260;2023-12-22T07:23:30;21.30;49.70
59162;DHT22;44942;48.936;8.260;2023-12-22T07:28:31;21.30;49.90
59162;DHT22;44942;48.936;8.260;2023-12-22T07:33:32;21.30;49.80
59162;DHT22;44942;48.936;8.260;2023-12-22T07:38:32;21.20;49.60
59162;DHT22;44942;48.936;8.260;2023-12-22T07:43:33;21.20;49.60
59162;DHT22;44942;48.936;8.260;2023-12-22T07:48:34;21.20;49.60
59162;DHT22;44942;48.936;8.260;2023-12-22T07:53:34;21.20;49.70
59162;DHT22;44942;48.936;8.260;2023-12-22T07:58:35;21.20;49.80
59162;DHT22;44942;48.936;8.260;2023-12-22T08:03:37;21.20;49.70
59162;DHT22;44942;48.936;8.260;2023-12-22T08:08:37;21.10;49.60
59162;DHT22;44942;48.936;8.260;2023-12-22T08:13:38;21.10;49.60
59162;DHT22;44942;48.936;8.260;2023-12-22T08:18:38;21.10;49.70
59162;DHT22;44942;48.936;8.260;2023-12-22T08:23:39;21.10;49.70
59162;DHT22;44942;48.936;8.260;2023-12-22T08:28:39;21.10;50.00
59162;DHT22;44942;48.936;8.260;2023-12-22T08:33:40;21.10;50.40
59162;DHT22;44942;48.936;8.260;2023-12-22T08:38:43;21.00;49.90
59162;DHT22;44942;48.936;8.260;2023-12-22T08:43:44;20.90;49.60
59162;DHT22;44942;48.936;8.260;2023-12-22T08:48:45;20.80;49.30
59162;DHT22;44942;48.936;8.260;2023-12-22T08:53:45;20.80;49.20
59162;DHT22;44942;48.936;8.260;2023-12-22T08:58:46;20.80;49.30
59162;DHT22;44942;48.936;8.260;2023-12-22T09:03:46;20.80;49.30
59162;DHT22;44942;48.936;8.260;2023-12-22T09:08:47;20.90;49.30
59162;DHT22;44942;48.936;8.260;2023-12-22T09:13:48;20.90;49.50
59162;DHT22;44942;48.936;8.260;2023-12-22T09:18:49;21.10;49.80
59162;DHT22;44942;48.936;8.260;2023-12-22T09:23:50;21.20;50.00
59162;DHT22;44942;48.936;8.260;2023-12-22T09:28:50;21.20;50.10
59162;DHT22;44942;48.936;8.260;2023-12-22T09:33:51;21.20;50.40
59162;DHT22;44942;48.936;8.260;2023-12-22T09:38:51;21.20;51.00
59162;DHT22;44942;48.936;8.260;2023-12-22T09:43:55;21.20;51.30
59162;DHT22;44942;48.936;8.260;2023-12-22T09:48:56;21.20;51.80
59162;DHT22;44942;48.936;8.260;2023-12-22T09:53:57;21.20;53.00
59162;DHT22;44942;48.936;8.260;2023-12-22T09:58:59;21.30;52.40
59162;DHT22;44942;48.936;8.260;2023-12-22T10:04:00;21.40;52.10
59162;DHT22;44942;48.936;8.260;2023-12-22T10:09:01;21.40;51.80
59162;DHT22;44942;48.936;8.260;2023-12-22T10:14:05;21.40;51.60
59162;DHT22;44942;48.936;8.260;2023-12-22T10:19:07;21.40;51.20
59162;DHT22;44942;48.936;8.260;2023-12-22T10:29:44;21.30;50.50
59162;DHT22;44942;48.936;8.260;2023-12-22T10:34:44;21.30;50.40
59162;DHT22;44942;48.936;8.260;2023-12-22T10:39:45;21.30;50.20
59162;DHT22;44942;48.936;8.260;2023-12-22T10:44:49;21.30;50.20
59162;DHT22;44942;48.936;8.260;2023-12-22T10:49:51;21.30;50.10
59162;DHT22;44942;48.936;8.260;2023-12-22T10:54:51;21.20;50.00
59162;DHT22;44942;48.936;8.260;2023-12-22T10:59:52;21.20;50.00
59162;DHT22;44942;48.936;8.260;2023-12-22T11:05:03;21.20;50.10
59162;DHT22;44942;48.936;8.260;2023-12-22T11:10:08;21.20;50.20
59162;DHT22;44942;48.936;8.260;2023-12-22T11:15:11;21.20;50.30
59162;DHT22;44942;48.936;8.260;2023-12-22T11:20:16;21.10;50.20
59162;DHT22;44942;48.936;8.260;2023-12-22T11:25:17;21.10;50.40
59162;DHT22;44942;48.936;8.260;2023-12-22T11:30:19;21.10;50.40
59162;DHT22;44942;48.936;8.260;2023-12-22T11:35:23;21.10;50.60
59162;DHT22;44942;48.936;8.260;2023-12-22T11:40:23;21.10;50.60
59162;DHT22;44942;48.936;8.260;2023-12-22T11:45:24;21.10;50.70
59162;DHT22;44942;48.936;8.260;2023-12-22T11:50:29;21.10;50.80
59162;DHT22;44942;48.936;8.260;2023-12-22T11:56:08;21.20;50.90
59162;DHT22;44942;48.936;8.260;2023-12-22T12:01:13;21.10;50.90
59162;DHT22;44942;48.936;8.260;2023-12-22T12:11:17;21.10;51.00
59162;DHT22;44942;48.936;8.260;2023-12-22T12:16:19;21.10;51.10
59162;DHT22;44942;48.936;8.260;2023-12-22T12:21:23;21.10;51.10
59162;DHT22;44942;48.936;8.260;2023-12-22T12:26:23;21.10;51.20
59162;DHT22;44942;48.936;8.260;2023-12-22T12:31:36;21.10;51.20
59162;DHT22;44942;48.936;8.260;2023-12-22T12:36:39;21.10;51.00
59162;DHT22;44942;48.936;8.260;2023-12-22T12:41:43;21.00;51.00
59162;DHT22;44942;48.936;8.260;2023-12-22T12:46:46;21.00;51.10
59162;DHT22;44942;48.936;8.260;2023-12-22T12:51:48;21.00;51.10
59162;DHT22;44942;48.936;8.260;2023-12-22T12:56:49;20.90;51.20
59162;DHT22;44942;48.936;8.260;2023-12-22T13:01:50;20.90;51.30
59162;DHT22;44942;48.936;8.260;2023-12-22T13:06:51;20.90;51.30
59162;DHT22;44942;48.936;8.260;2023-12-22T13:11:51;20.80;51.50
59162;DHT22;44942;48.936;8.260;2023-12-22T13:16:55;20.80;51.60
59162;DHT22;44942;48.936;8.260;2023-12-22T13:21:56;20.80;51.80
59162;DHT22;44942;48.936;8.260;2023-12-22T13:27:02;20.80;51.90
59162;DHT22;44942;48.936;8.260;2023-12-22T13:32:04;20.80;52.00
59162;DHT22;44942;48.936;8.260;2023-12-22T13:37:05;20.80;52.00
59162;DHT22;44942;48.936;8.260;2023-12-22T13:42:16;20.80;52.20
59162;DHT22;44942;48.936;8.260;2023-12-22T13:47:18;20.80;52.20
59162;DHT22;44942;48.936;8.260;2023-12-22T13:52:30;20.80;52.20
59162;DHT22;44942;48.936;8.260;2023-12-22T13:57:35;20.80;52.20
59162;DHT22;44942;48.936;8.260;2023-12-22T14:02:35;20.80;52.10
59162;DHT22;44942;48.936;8.260;2023-12-22T14:07:37;20.80;52.10
59162;DHT22;44942;48.936;8.260;2023-12-22T14:12:38;20.80;52.20
59162;DHT22;44942;48.936;8.260;2023-12-22T14:17:39;20.80;52.30
59162;DHT22;44942;48.936;8.260;2023-12-22T14:22:42;20.80;52.30
59162;DHT22;44942;48.936;8.260;2023-12-22T14:27:43;20.80;52.30
59162;DHT22;44942;48.936;8.260;2023-12-22T14:32:43;20.70;52.20
59162;DHT22;44942;48.936;8.260;2023-12-22T14:37:44;20.70;52.20
59162;DHT22;44942;48.936;8.260;2023-12-22T14:42:46;20.70;52.20
59162;DHT22;44942;48.936;8.260;2023-12-22T14:47:47;20.70;52.20
59162;DHT22;44942;48.936;8.260;2023-12-22T14:52:48;20.70;52.30
59162;DHT22;44942;48.936;8.260;2023-12-22T14:57:48;20.70;52.40
59162;DHT22;44942;48.936;8.260;2023-12-22T15:02:49;20.70;52.30
59162;DHT22;44942;48.936;8.260;2023-12-22T15:07:49;20.70;52.40
59162;DHT22;44942;48.936;8.260;2023-12-22T15:12:50;20.70;52.40
59162;DHT22;44942;48.936;8.260;2023-12-22T15:17:51;20.70;52.40
59162;DHT22;44942;48.936;8.260;2023-12-22T15:22:51;20.70;52.30
59162;DHT22;44942;48.936;8.260;2023-12-22T15:27:52;20.70;52.20
59162;DHT22;44942;48.936;8.260;2023-12-22T15:32:55;20.70;52.30
59162;DHT22;44942;48.936;8.260;2023-12-22T15:37:56;20.70;52.40
59162;DHT22;44942;48.936;8.260;2023-12-22T15:42:57;20.70;52.30
59162;DHT22;44942;48.936;8.260;2023-12-22T15:47:57;20.70;52.30
59162;DHT22;44942;48.936;8.260;2023-12-22T15:52:58;20.60;52.20
59162;DHT22;44942;48.936;8.260;2023-12-22T15:57:59;20.70;52.40
59162;DHT22;44942;48.936;8.260;2023-12-22T16:02:59;20.60;52.30
59162;DHT22;44942;48.936;8.260;2023-12-22T16:08:00;20.60;52.40
59162;DHT22;44942;48.936;8.260;2023-12-22T16:13:02;20.50;52.50
59162;DHT22;44942;48.936;8.260;2023-12-22T16:18:04;20.50;52.60
59162;DHT22;44942;48.936;8.260;2023-12-22T16:23:05;20.50;52.70
59162;DHT22;44942;48.936;8.260;2023-12-22T16:28:05;20.50;52.80
59162;DHT22;44942;48.936;8.260;2023-12-22T16:33:06;20.50;52.80
59162;DHT22;44942;48.936;8.260;2023-12-22T16:38:07;20.50;52.80
59162;DHT22;44942;48.936;8.260;2023-12-22T16:43:07;20.40;52.80
59162;DHT22;44942;48.936;8.260;2023-12-22T16:48:08;20.40;53.00
59162;DHT22;44942;48.936;8.260;2023-12-22T16:53:08;20.40;53.00
59162;DHT22;44942;48.936;8.260;2023-12-22T16:58:09;20.40;53.00
59162;DHT22;44942;48.936;8.260;2023-12-22T17:03:09;20.40;53.10
59162;DHT22;44942;48.936;8.260;2023-12-22T17:08:10;20.40;53.20
59162;DHT22;44942;48.936;8.260;2023-12-22T17:13:11;20.30;53.20
59162;DHT22;44942;48.936;8.260;2023-12-22T17:18:11;20.30;53.20
59162;DHT22;44942;48.936;8.260;2023-12-22T17:23:12;20.30;53.30
59162;DHT22;44942;48.936;8.260;2023-12-22T17:28:12;20.30;53.30
59162;DHT22;44942;48.936;8.260;2023-12-22T17:33:13;20.30;53.30
59162;DHT22;44942;48.936;8.260;2023-12-22T17:38:14;20.30;54.00
59162;DHT22;44942;48.936;8.260;2023-12-22T17:43:14;20.30;53.40
59162;DHT22;44942;48.936;8.260;2023-12-22T17:48:15;20.30;53.50
59162;DHT22;44942;48.936;8.260;2023-12-22T17:53:16;20.30;53.50
59162;DHT22;44942;48.936;8.260;2023-12-22T17:58:16;20.30;53.50
59162;DHT22;44942;48.936;8.260;2023-12-22T18:03:18;20.30;53.50
59162;DHT22;44942;48.936;8.260;2023-12-22T18:08:18;20.30;53.60
59162;DHT22;44942;48.936;8.260;2023-12-22T18:13:19;20.30;53.60
59162;DHT22;44942;48.936;8.260;2023-12-22T18:18:19;20.30;53.80
59162;DHT22;44942;48.936;8.260;2023-12-22T18:23:20;20.30;54.10
59162;DHT22;44942;48.936;8.260;2023-12-22T18:28:20;20.30;54.20
59162;DHT22;44942;48.936;8.260;2023-12-22T18:33:21;20.30;54.30
59162;DHT22;44942;48.936;8.260;2023-12-22T18:38:23;20.30;54.50
59162;DHT22;44942;48.936;8.260;2023-12-22T18:43:24;20.30;55.30
59162;DHT22;44942;48.936;8.260;2023-12-22T18:48:25;20.40;54.70
59162;DHT22;44942;48.936;8.260;2023-12-22T18:53:25;20.50;54.90
59162;DHT22;44942;48.936;8.260;2023-12-22T18:58:26;20.50;54.90
59162;DHT22;44942;48.936;8.260;2023-12-22T19:03:29;20.50;54.90
59162;DHT22;44942;48.936;8.260;2023-12-22T19:08:29;20.50;54.90
59162;DHT22;44942;48.936;8.260;2023-12-22T19:13:30;20.50;54.80
59162;DHT22;44942;48.936;8.260;2023-12-22T19:18:30;20.50;54.90
59162;DHT22;44942;48.936;8.260;2023-12-22T19:23:31;20.60;54.90
59162;DHT22;44942;48.936;8.260;2023-12-22T19:28:32;20.60;54.80
59162;DHT22;44942;48.936;8.260;2023-12-22T19:33:32;20.60;54.90
59162;DHT22;44942;48.936;8.260;2023-12-22T19:38:33;20.60;54.70
59162;DHT22;44942;48.936;8.260;2023-12-22T19:43:34;20.60;55.40
59162;DHT22;44942;48.936;8.260;2023-12-22T19:48:36;20.60;54.60
59162;DHT22;44942;48.936;8.260;2023-12-22T19:53:36;20.60;54.50
59162;DHT22;44942;48.936;8.260;2023-12-22T19:58:37;20.70;54.50
59162;DHT22;44942;48.936;8.260;2023-12-22T20:03:37;20.70;54.50
59162;DHT22;44942;48.936;8.260;2023-12-22T20:08:38;20.70;54.50
59162;DHT22;44942;48.936;8.260;2023-12-22T20:13:38;20.70;54.50
59162;DHT22;44942;48.936;8.260;2023-12-22T20:18:39;20.70;54.50
59162;DHT22;44942;48.936;8.260;2023-12-22T20:23:40;20.70;54.40
59162;DHT22;44942;48.936;8.260;2023-12-22T20:28:40;20.70;54.50
59162;DHT22;44942;48.936;8.260;2023-12-22T20:33:41;20.70;54.60
59162;DHT22;44942;48.936;8.260;2023-12-22T20:38:41;20.70;54.60
59162;DHT22;44942;48.936;8.260;2023-12-22T20:43:42;20.60;54.60
59162;DHT22;44942;48.936;8.260;2023-12-22T20:48:43;20.70;54.60
59162;DHT22;44942;48.936;8.260;2023-12-22T20:53:43;20.70;54.60
59162;DHT22;44942;48.936;8.260;2023-12-22T20:58:44;20.70;54.60
59162;DHT22;44942;48.936;8.260;2023-12-22T21:03:45;20.70;54.60
59162;DHT22;44942;48.936;8.260;2023-12-22T21:08:45;20.70;54.50
59162;DHT22;44942;48.936;8.260;2023-12-22T21:13:46;20.70;54.50
59162;DHT22;44942;48.936;8.260;2023-12-22T21:18:48;20.70;54.50
59162;DHT22;44942;48.936;8.260;2023-12-22T21:23:48;20.70;54.50
59162;DHT22;44942;48.936;8.260;2023-12-22T21:28:49;20.70;54.40
59162;DHT22;44942;48.936;8.260;2023-12-22T21:33:49;20.70;54.40
59162;DHT22;44942;48.936;8.260;2023-12-22T21:38:51;20.70;54.30
59162;DHT22;44942;48.936;8.260;2023-12-22T21:43:52;20.70;54.30
59162;DHT22;44942;48.936;8.260;2023-12-22T21:48:52;20.70;54.40
59162;DHT22;44942;48.936;8.260;2023-12-22T21:53:53;20.70;54.30
59162;DHT22;44942;48.936;8.260;2023-12-22T21:58:53;20.70;54.30
59162;DHT22;44942;48.936;8.260;2023-12-22T22:03:54;20.70;54.40
59162;DHT22;44942;48.936;8.260;2023-12-22T22:08:55;20.70;54.30
59162;DHT22;44942;48.936;8.260;2023-12-22T22:13:55;20.70;54.40
59162;DHT22;44942;48.936;8.260;2023-12-22T22:18:56;20.80;54.40
59162;DHT22;44942;48.936;8.260;2023-12-22T22:23:57;20.80;54.30
59162;DHT22;44942;48.936;8.260;2023-12-22T22:28:57;20.80;54.20
59162;DHT22;44942;48.936;8.260;2023-12-22T22:33:58;21.00;54.20
59162;DHT22;44942;48.936;8.260;2023-12-22T22:38:59;21.00;54.20
59162;DHT22;44942;48.936;8.260;2023-12-22T22:43:59;21.10;54.10
59162;DHT22;44942;48.936;8.260;2023-12-22T22:49:00;21.20;54.00
59162;DHT22;44942;48.936;8.260;2023-12-22T22:54:00;21.30;53.80
59162;DHT22;44942;48.936;8.260;2023-12-22T22:59:01;21.30;53.80
59162;DHT22;44942;48.936;8.260;2023-12-22T23:04:02;21.40;53.60
59162;DHT22;44942;48.936;8.260;2023-12-22T23:09:02;21.40;53.60
59162;DHT22;44942;48.936;8.260;2023-12-22T23:14:03;21.50;53.50
59162;DHT22;44942;48.936;8.260;2023-12-22T23:19:04;21.50;53.40
59162;DHT22;44942;48.936;8.260;2023-12-22T23:24:04;21.50;53.30
59162;DHT22;44942;48.936;8.260;2023-12-22T23:29:06;21.60;53.30
59162;DHT22;44942;48.936;8.260;2023-12-22T23:34:07;21.60;53.20
59162;DHT22;44942;48.936;8.260;2023-12-22T23:39:07;21.60;53.10
59162;DHT22;44942;48.936;8.260;2023-12-22T23:44:08;21.70;53.10
59162;DHT22;44942;48.936;8.260;2023-12-22T23:49:09;21.70;53.10
59162;DHT22;44942;48.936;8.260;2023-12-22T23:54:09;21.70;53.00
59162;DHT22;44942;48.936;8.260;2023-12-22T23:59:10;21.70;52.90
